Nyk Argus — HPZA — position and weather

sailwx.info

Track history (hours):
 
Tides and Currents Weather Stations Pressure Air Temp Water Temp Dewpoint Dewpoint Depression Visibility Wind Speed Wind Dir Waves Ship Positions

Nyk Argus

Last reported at 2017-Oct-22 12:00 UTC. Time now 2017-Oct-22 12:12 UTC.
Position N 33°38' W 118°13'.

Length 299.9 m; beam 40 m.

Type: Ship (hazmat cat D). MMSI: 356872000.

Date/timePositionNaut miles runAvg speedWind from/ knotsBaromVisibWave heightAir tempDewpointWater temp
2017-Oct-22 12:00N 33°38' W 118°13'4 8.6
2017-Oct-22 11:30N 33°36' W 118°17'5 9.5
2017-Oct-22 11:00N 33°37' W 118°22'510.0
2017-Oct-22 10:30N 33°39' W 118°28'610.3
2017-Oct-22 09:54N 33°42' W 118°34'510.5
2017-Oct-22 09:28N 33°45' W 118°39'510.2
2017-Oct-22 09:00N 33°47' W 118°44'610.3
2017-Oct-22 08:25N 33°50' W 118°50'510.5
2017-Oct-22 07:59N 33°52' W 118°55'610.4
2017-Oct-22 07:26N 33°55' W 119°01'510.5
2017-Oct-22 06:59N 33°58' W 119°06'510.6
2017-Oct-22 06:28N 34°00' W 119°12'510.7
2017-Oct-22 06:00N 34°02' W 119°17'612.3
2017-Oct-22 05:28N 34°04' W 119°25'612.4
2017-Oct-22 05:00N 34°05' W 119°31'712.5
2017-Oct-22 04:25N 34°07' W 119°40'612.9
2017-Oct-22 03:56N 34°09' W 119°47'613.1
2017-Oct-22 03:30N 34°11' W 119°54'713.9
2017-Oct-22 03:00N 34°13' W 120°02'713.6
2017-Oct-22 02:28N 34°15' W 120°10'713.7
2017-Oct-22 01:59N 34°16' W 120°18'713.7
2017-Oct-22 01:30N 34°18' W 120°26'713.4
2017-Oct-22 01:00N 34°20' W 120°33'714.3
2017-Oct-22 00:30N 34°22' W 120°42'714.9
2017-Oct-22 00:00N 34°24' W 120°50'815.0
2017-Oct-21 23:28N 34°25' W 120°60'714.9
2017-Oct-21 23:00N 34°25' W 121°09'715.0
2017-Oct-21 22:30N 34°25' W 121°18'1014.2
2017-Oct-21 21:49N 34°25' W 121°29'514.3
2017-Oct-21 21:29N 34°25' W 121°35'816.5
2017-Oct-21 21:00N 34°25' W 121°45'917.1
2017-Oct-21 20:30N 34°25' W 121°55'916.7
2017-Oct-21 19:59N 34°25' W 122°06'816.5
2017-Oct-21 19:30N 34°25' W 122°15'816.5
2017-Oct-21 19:00N 34°25' W 122°25'8513.0
2017-Oct-21 12:27N 34°24' W 124°08'  
Track history (hours):
 
Tides and Currents Weather Stations Pressure Air Temp Water Temp Dewpoint Dewpoint Depression Visibility Wind Speed Wind Dir Waves Ship Positions

Nyk Argus

Last reported at 2017-Oct-22 12:00 UTC. Time now 2017-Oct-22 12:12 UTC.
Position N 33°38' W 118°13'.

Length 299.9 m; beam 40 m.

Type: Ship (hazmat cat D). MMSI: 356872000.

Date/timePositionNaut miles runAvg speedWind from/ knotsBaromVisibWave heightAir tempDewpointWater temp
2017-Oct-22 12:00N 33°38' W 118°13'4 8.6
2017-Oct-22 11:30N 33°36' W 118°17'5 9.5
2017-Oct-22 11:00N 33°37' W 118°22'510.0
2017-Oct-22 10:30N 33°39' W 118°28'610.3
2017-Oct-22 09:54N 33°42' W 118°34'510.5
2017-Oct-22 09:28N 33°45' W 118°39'510.2
2017-Oct-22 09:00N 33°47' W 118°44'610.3
2017-Oct-22 08:25N 33°50' W 118°50'510.5
2017-Oct-22 07:59N 33°52' W 118°55'610.4
2017-Oct-22 07:26N 33°55' W 119°01'510.5
2017-Oct-22 06:59N 33°58' W 119°06'510.6
2017-Oct-22 06:28N 34°00' W 119°12'510.7
2017-Oct-22 06:00N 34°02' W 119°17'612.3
2017-Oct-22 05:28N 34°04' W 119°25'612.4
2017-Oct-22 05:00N 34°05' W 119°31'712.5
2017-Oct-22 04:25N 34°07' W 119°40'612.9
2017-Oct-22 03:56N 34°09' W 119°47'613.1
2017-Oct-22 03:30N 34°11' W 119°54'713.9
2017-Oct-22 03:00N 34°13' W 120°02'713.6
2017-Oct-22 02:28N 34°15' W 120°10'713.7
2017-Oct-22 01:59N 34°16' W 120°18'713.7
2017-Oct-22 01:30N 34°18' W 120°26'713.4
2017-Oct-22 01:00N 34°20' W 120°33'714.3
2017-Oct-22 00:30N 34°22' W 120°42'714.9
2017-Oct-22 00:00N 34°24' W 120°50'815.0
2017-Oct-21 23:28N 34°25' W 120°60'714.9
2017-Oct-21 23:00N 34°25' W 121°09'715.0
2017-Oct-21 22:30N 34°25' W 121°18'1014.2
2017-Oct-21 21:49N 34°25' W 121°29'514.3
2017-Oct-21 21:29N 34°25' W 121°35'816.5
2017-Oct-21 21:00N 34°25' W 121°45'917.1
2017-Oct-21 20:30N 34°25' W 121°55'916.7
2017-Oct-21 19:59N 34°25' W 122°06'816.5
2017-Oct-21 19:30N 34°25' W 122°15'816.5
2017-Oct-21 19:00N 34°25' W 122°25'8513.0
2017-Oct-21 12:27N 34°24' W 124°08'  

Dump ship's entire track history